sensor_id;sensor_type;location;lat;lon;timestamp;P1;durP1;ratioP1;P2;durP2;ratioP2
27800;SDS011;15181;49.112;11.930;2022-08-07T00:00:02;6.82;;;5.28;;
27800;SDS011;15181;49.112;11.930;2022-08-07T00:02:30;5.80;;;5.30;;
27800;SDS011;15181;49.112;11.930;2022-08-07T00:04:57;5.85;;;5.35;;
27800;SDS011;15181;49.112;11.930;2022-08-07T00:07:23;6.10;;;5.47;;
27800;SDS011;15181;49.112;11.930;2022-08-07T00:09:50;5.70;;;5.20;;
27800;SDS011;15181;49.112;11.930;2022-08-07T00:12:17;6.50;;;5.80;;
27800;SDS011;15181;49.112;11.930;2022-08-07T00:14:45;6.30;;;5.70;;
27800;SDS011;15181;49.112;11.930;2022-08-07T00:17:12;6.28;;;5.68;;
27800;SDS011;15181;49.112;11.930;2022-08-07T00:19:39;6.38;;;5.88;;
27800;SDS011;15181;49.112;11.930;2022-08-07T00:22:06;6.22;;;5.72;;
27800;SDS011;15181;49.112;11.930;2022-08-07T00:24:33;6.55;;;6.03;;
27800;SDS011;15181;49.112;11.930;2022-08-07T00:27:01;6.15;;;5.63;;
27800;SDS011;15181;49.112;11.930;2022-08-07T00:29:28;6.78;;;5.53;;
27800;SDS011;15181;49.112;11.930;2022-08-07T00:31:56;6.07;;;5.47;;
27800;SDS011;15181;49.112;11.930;2022-08-07T00:34:24;6.20;;;5.70;;
27800;SDS011;15181;49.112;11.930;2022-08-07T00:36:51;6.18;;;5.57;;
27800;SDS011;15181;49.112;11.930;2022-08-07T00:39:18;6.53;;;5.90;;
27800;SDS011;15181;49.112;11.930;2022-08-07T00:41:48;8.15;;;5.78;;
27800;SDS011;15181;49.112;11.930;2022-08-07T00:44:16;6.38;;;5.78;;
27800;SDS011;15181;49.112;11.930;2022-08-07T00:46:43;5.75;;;5.30;;
27800;SDS011;15181;49.112;11.930;2022-08-07T00:49:12;6.05;;;5.55;;
27800;SDS011;15181;49.112;11.930;2022-08-07T00:51:39;6.15;;;5.55;;
27800;SDS011;15181;49.112;11.930;2022-08-07T00:54:06;6.30;;;5.80;;
27800;SDS011;15181;49.112;11.930;2022-08-07T00:56:33;6.10;;;5.50;;
27800;SDS011;15181;49.112;11.930;2022-08-07T00:59:00;6.38;;;5.72;;
27800;SDS011;15181;49.112;11.930;2022-08-07T01:01:27;6.35;;;5.75;;
27800;SDS011;15181;49.112;11.930;2022-08-07T01:03:54;5.60;;;5.10;;
27800;SDS011;15181;49.112;11.930;2022-08-07T01:06:23;6.30;;;5.72;;
27800;SDS011;15181;49.112;11.930;2022-08-07T01:08:50;5.53;;;5.07;;
27800;SDS011;15181;49.112;11.930;2022-08-07T01:11:17;5.55;;;5.00;;
27800;SDS011;15181;49.112;11.930;2022-08-07T01:13:44;6.00;;;5.30;;
27800;SDS011;15181;49.112;11.930;2022-08-07T01:16:10;5.40;;;5.00;;
27800;SDS011;15181;49.112;11.930;2022-08-07T01:18:39;6.43;;;5.50;;
27800;SDS011;15181;49.112;11.930;2022-08-07T01:21:09;5.45;;;5.05;;
27800;SDS011;15181;49.112;11.930;2022-08-07T01:23:37;5.80;;;5.30;;
27800;SDS011;15181;49.112;11.930;2022-08-07T01:26:06;6.32;;;5.30;;
27800;SDS011;15181;49.112;11.930;2022-08-07T01:28:34;6.05;;;5.35;;
27800;SDS011;15181;49.112;11.930;2022-08-07T01:31:02;5.80;;;5.30;;
27800;SDS011;15181;49.112;11.930;2022-08-07T01:33:29;6.10;;;5.25;;
27800;SDS011;15181;49.112;11.930;2022-08-07T01:35:57;5.60;;;5.10;;
27800;SDS011;15181;49.112;11.930;2022-08-07T01:38:27;5.47;;;4.97;;
27800;SDS011;15181;49.112;11.930;2022-08-07T01:40:56;5.65;;;5.10;;
27800;SDS011;15181;49.112;11.930;2022-08-07T01:43:25;5.93;;;5.38;;
27800;SDS011;15181;49.112;11.930;2022-08-07T01:45:53;5.68;;;5.18;;
27800;SDS011;15181;49.112;11.930;2022-08-07T01:48:22;5.43;;;4.93;;
27800;SDS011;15181;49.112;11.930;2022-08-07T01:50:51;5.82;;;5.00;;
27800;SDS011;15181;49.112;11.930;2022-08-07T01:53:22;5.95;;;5.05;;
27800;SDS011;15181;49.112;11.930;2022-08-07T01:55:54;5.82;;;4.82;;
27800;SDS011;15181;49.112;11.930;2022-08-07T01:58:27;5.10;;;4.70;;
27800;SDS011;15181;49.112;11.930;2022-08-07T02:00:58;5.10;;;4.60;;
27800;SDS011;15181;49.112;11.930;2022-08-07T02:03:28;5.72;;;4.70;;
27800;SDS011;15181;49.112;11.930;2022-08-07T02:05:58;5.43;;;4.60;;
27800;SDS011;15181;49.112;11.930;2022-08-07T02:08:28;5.20;;;4.70;;
27800;SDS011;15181;49.112;11.930;2022-08-07T02:11:00;5.80;;;4.80;;
27800;SDS011;15181;49.112;11.930;2022-08-07T02:13:29;5.50;;;5.00;;
27800;SDS011;15181;49.112;11.930;2022-08-07T02:15:57;5.18;;;4.68;;
27800;SDS011;15181;49.112;11.930;2022-08-07T02:18:28;5.60;;;5.00;;
27800;SDS011;15181;49.112;11.930;2022-08-07T02:20:56;5.32;;;4.82;;
27800;SDS011;15181;49.112;11.930;2022-08-07T02:23:25;5.50;;;5.00;;
27800;SDS011;15181;49.112;11.930;2022-08-07T02:25:53;5.47;;;4.72;;
27800;SDS011;15181;49.112;11.930;2022-08-07T02:28:24;5.15;;;4.75;;
27800;SDS011;15181;49.112;11.930;2022-08-07T02:30:53;5.80;;;5.30;;
27800;SDS011;15181;49.112;11.930;2022-08-07T02:33:21;5.50;;;5.00;;
27800;SDS011;15181;49.112;11.930;2022-08-07T02:35:49;5.63;;;5.13;;
27800;SDS011;15181;49.112;11.930;2022-08-07T02:38:17;5.53;;;5.03;;
27800;SDS011;15181;49.112;11.930;2022-08-07T02:40:47;6.18;;;5.60;;
27800;SDS011;15181;49.112;11.930;2022-08-07T02:43:15;6.07;;;5.45;;
27800;SDS011;15181;49.112;11.930;2022-08-07T02:45:44;5.70;;;5.20;;
27800;SDS011;15181;49.112;11.930;2022-08-07T02:48:12;6.07;;;5.05;;
27800;SDS011;15181;49.112;11.930;2022-08-07T02:50:43;5.80;;;5.30;;
27800;SDS011;15181;49.112;11.930;2022-08-07T02:53:14;5.85;;;5.35;;
27800;SDS011;15181;49.112;11.930;2022-08-07T02:55:46;5.80;;;5.30;;
27800;SDS011;15181;49.112;11.930;2022-08-07T02:58:16;6.05;;;5.22;;
27800;SDS011;15181;49.112;11.930;2022-08-07T03:00:48;5.70;;;5.20;;
27800;SDS011;15181;49.112;11.930;2022-08-07T03:03:17;5.75;;;5.25;;
27800;SDS011;15181;49.112;11.930;2022-08-07T03:05:45;5.40;;;5.00;;
27800;SDS011;15181;49.112;11.930;2022-08-07T03:08:14;6.93;;;5.68;;
27800;SDS011;15181;49.112;11.930;2022-08-07T03:10:42;8.80;;;5.13;;
27800;SDS011;15181;49.112;11.930;2022-08-07T03:13:10;5.72;;;5.15;;
27800;SDS011;15181;49.112;11.930;2022-08-07T03:15:38;5.50;;;5.03;;
27800;SDS011;15181;49.112;11.930;2022-08-07T03:18:07;5.35;;;4.95;;
27800;SDS011;15181;49.112;11.930;2022-08-07T03:20:34;5.90;;;5.32;;
27800;SDS011;15181;49.112;11.930;2022-08-07T03:23:01;5.20;;;4.80;;
27800;SDS011;15181;49.112;11.930;2022-08-07T03:25:29;5.20;;;4.78;;
27800;SDS011;15181;49.112;11.930;2022-08-07T03:27:58;5.28;;;4.53;;
27800;SDS011;15181;49.112;11.930;2022-08-07T03:30:28;5.15;;;4.65;;
27800;SDS011;15181;49.112;11.930;2022-08-07T03:32:57;4.82;;;4.43;;
27800;SDS011;15181;49.112;11.930;2022-08-07T03:35:27;5.07;;;4.68;;
27800;SDS011;15181;49.112;11.930;2022-08-07T03:37:55;5.57;;;4.90;;
27800;SDS011;15181;49.112;11.930;2022-08-07T03:40:25;5.18;;;4.68;;
27800;SDS011;15181;49.112;11.930;2022-08-07T03:42:53;5.30;;;4.80;;
27800;SDS011;15181;49.112;11.930;2022-08-07T03:45:21;5.10;;;4.70;;
27800;SDS011;15181;49.112;11.930;2022-08-07T03:47:49;5.80;;;5.20;;
27800;SDS011;15181;49.112;11.930;2022-08-07T03:50:18;5.13;;;4.63;;
27800;SDS011;15181;49.112;11.930;2022-08-07T03:52:47;5.38;;;4.88;;
27800;SDS011;15181;49.112;11.930;2022-08-07T03:55:16;5.10;;;4.63;;
27800;SDS011;15181;49.112;11.930;2022-08-07T03:57:43;4.97;;;4.53;;
27800;SDS011;15181;49.112;11.930;2022-08-07T04:00:11;5.82;;;5.15;;
27800;SDS011;15181;49.112;11.930;2022-08-07T04:02:39;5.50;;;5.00;;
27800;SDS011;15181;49.112;11.930;2022-08-07T04:05:08;5.10;;;4.70;;
27800;SDS011;15181;49.112;11.930;2022-08-07T04:07:35;5.30;;;4.65;;
27800;SDS011;15181;49.112;11.930;2022-08-07T04:10:04;5.00;;;4.50;;
27800;SDS011;15181;49.112;11.930;2022-08-07T04:12:31;5.43;;;4.93;;
27800;SDS011;15181;49.112;11.930;2022-08-07T04:14:59;5.10;;;4.60;;
27800;SDS011;15181;49.112;11.930;2022-08-07T04:17:26;5.07;;;4.57;;
27800;SDS011;15181;49.112;11.930;2022-08-07T04:19:53;4.97;;;4.35;;
27800;SDS011;15181;49.112;11.930;2022-08-07T04:22:20;5.07;;;4.60;;
27800;SDS011;15181;49.112;11.930;2022-08-07T04:24:48;4.93;;;4.53;;
27800;SDS011;15181;49.112;11.930;2022-08-07T04:27:17;5.25;;;4.80;;
27800;SDS011;15181;49.112;11.930;2022-08-07T04:29:44;5.75;;;4.75;;
27800;SDS011;15181;49.112;11.930;2022-08-07T04:32:10;5.03;;;4.60;;
27800;SDS011;15181;49.112;11.930;2022-08-07T04:34:38;5.20;;;4.70;;
27800;SDS011;15181;49.112;11.930;2022-08-07T04:37:05;4.80;;;4.30;;
27800;SDS011;15181;49.112;11.930;2022-08-07T04:39:32;5.57;;;4.70;;
27800;SDS011;15181;49.112;11.930;2022-08-07T04:42:00;5.20;;;4.80;;
27800;SDS011;15181;49.112;11.930;2022-08-07T04:44:29;6.05;;;4.80;;
27800;SDS011;15181;49.112;11.930;2022-08-07T04:46:58;5.05;;;4.65;;
27800;SDS011;15181;49.112;11.930;2022-08-07T04:49:33;5.30;;;4.80;;
27800;SDS011;15181;49.112;11.930;2022-08-07T04:52:09;5.30;;;4.80;;
27800;SDS011;15181;49.112;11.930;2022-08-07T04:54:44;5.78;;;5.05;;
27800;SDS011;15181;49.112;11.930;2022-08-07T04:57:19;7.32;;;4.80;;
27800;SDS011;15181;49.112;11.930;2022-08-07T04:59:54;5.70;;;5.20;;
27800;SDS011;15181;49.112;11.930;2022-08-07T05:02:25;5.32;;;4.82;;
27800;SDS011;15181;49.112;11.930;2022-08-07T05:04:58;5.15;;;4.65;;
27800;SDS011;15181;49.112;11.930;2022-08-07T05:07:31;5.20;;;4.70;;
27800;SDS011;15181;49.112;11.930;2022-08-07T05:10:05;5.68;;;4.80;;
27800;SDS011;15181;49.112;11.930;2022-08-07T05:12:37;5.55;;;5.05;;
27800;SDS011;15181;49.112;11.930;2022-08-07T05:15:09;5.35;;;4.85;;
27800;SDS011;15181;49.112;11.930;2022-08-07T05:17:43;5.30;;;4.80;;
27800;SDS011;15181;49.112;11.930;2022-08-07T05:20:14;5.47;;;4.70;;
27800;SDS011;15181;49.112;11.930;2022-08-07T05:22:45;5.20;;;4.70;;
27800;SDS011;15181;49.112;11.930;2022-08-07T05:25:15;5.63;;;5.05;;
27800;SDS011;15181;49.112;11.930;2022-08-07T05:27:44;5.32;;;4.90;;
27800;SDS011;15181;49.112;11.930;2022-08-07T05:30:13;5.15;;;4.75;;
27800;SDS011;15181;49.112;11.930;2022-08-07T05:32:40;5.70;;;5.20;;
27800;SDS011;15181;49.112;11.930;2022-08-07T05:35:11;5.35;;;4.85;;
27800;SDS011;15181;49.112;11.930;2022-08-07T05:37:39;5.15;;;4.65;;
27800;SDS011;15181;49.112;11.930;2022-08-07T05:40:07;5.35;;;4.85;;
27800;SDS011;15181;49.112;11.930;2022-08-07T05:42:36;5.32;;;4.82;;
27800;SDS011;15181;49.112;11.930;2022-08-07T05:45:04;5.18;;;4.70;;
27800;SDS011;15181;49.112;11.930;2022-08-07T05:47:33;5.70;;;5.15;;
27800;SDS011;15181;49.112;11.930;2022-08-07T05:50:01;5.32;;;4.80;;
27800;SDS011;15181;49.112;11.930;2022-08-07T05:52:29;5.82;;;4.90;;
27800;SDS011;15181;49.112;11.930;2022-08-07T05:54:56;4.95;;;4.55;;
27800;SDS011;15181;49.112;11.930;2022-08-07T05:57:23;5.35;;;4.85;;
27800;SDS011;15181;49.112;11.930;2022-08-07T05:59:51;5.93;;;4.75;;
27800;SDS011;15181;49.112;11.930;2022-08-07T06:02:20;5.30;;;4.70;;
27800;SDS011;15181;49.112;11.930;2022-08-07T06:04:52;5.13;;;4.70;;
27800;SDS011;15181;49.112;11.930;2022-08-07T06:07:22;5.00;;;4.60;;
27800;SDS011;15181;49.112;11.930;2022-08-07T06:09:49;5.00;;;4.50;;
27800;SDS011;15181;49.112;11.930;2022-08-07T06:12:16;5.05;;;4.40;;
27800;SDS011;15181;49.112;11.930;2022-08-07T06:14:44;5.68;;;4.30;;
27800;SDS011;15181;49.112;11.930;2022-08-07T06:17:11;5.00;;;4.15;;
27800;SDS011;15181;49.112;11.930;2022-08-07T06:19:38;4.95;;;4.43;;
27800;SDS011;15181;49.112;11.930;2022-08-07T06:22:07;5.07;;;4.57;;
27800;SDS011;15181;49.112;11.930;2022-08-07T06:24:34;4.78;;;4.30;;
27800;SDS011;15181;49.112;11.930;2022-08-07T06:27:01;5.07;;;4.57;;
27800;SDS011;15181;49.112;11.930;2022-08-07T06:29:28;4.70;;;4.30;;
27800;SDS011;15181;49.112;11.930;2022-08-07T06:31:55;6.47;;;4.72;;
27800;SDS011;15181;49.112;11.930;2022-08-07T06:34:23;4.93;;;4.50;;
27800;SDS011;15181;49.112;11.930;2022-08-07T06:36:50;5.53;;;5.00;;
27800;SDS011;15181;49.112;11.930;2022-08-07T06:39:19;4.90;;;4.50;;
27800;SDS011;15181;49.112;11.930;2022-08-07T06:41:47;5.05;;;4.38;;
27800;SDS011;15181;49.112;11.930;2022-08-07T06:44:19;4.78;;;4.38;;
27800;SDS011;15181;49.112;11.930;2022-08-07T06:46:47;5.00;;;4.55;;
27800;SDS011;15181;49.112;11.930;2022-08-07T06:49:14;4.95;;;4.30;;
27800;SDS011;15181;49.112;11.930;2022-08-07T06:51:41;5.53;;;4.13;;
27800;SDS011;15181;49.112;11.930;2022-08-07T06:54:11;8.20;;;4.57;;
27800;SDS011;15181;49.112;11.930;2022-08-07T06:56:42;4.80;;;4.40;;
27800;SDS011;15181;49.112;11.930;2022-08-07T06:59:12;4.82;;;4.32;;
27800;SDS011;15181;49.112;11.930;2022-08-07T07:01:41;5.10;;;4.60;;
27800;SDS011;15181;49.112;11.930;2022-08-07T07:04:10;5.22;;;4.70;;
27800;SDS011;15181;49.112;11.930;2022-08-07T07:06:37;4.70;;;4.30;;
27800;SDS011;15181;49.112;11.930;2022-08-07T07:09:20;5.20;;;4.70;;
27800;SDS011;15181;49.112;11.930;2022-08-07T07:11:56;4.70;;;4.30;;
27800;SDS011;15181;49.112;11.930;2022-08-07T07:14:27;4.88;;;4.38;;
27800;SDS011;15181;49.112;11.930;2022-08-07T07:16:58;4.82;;;4.40;;
27800;SDS011;15181;49.112;11.930;2022-08-07T07:19:31;4.70;;;4.30;;
27800;SDS011;15181;49.112;11.930;2022-08-07T07:22:01;5.95;;;4.25;;
27800;SDS011;15181;49.112;11.930;2022-08-07T07:24:28;4.90;;;4.50;;
27800;SDS011;15181;49.112;11.930;2022-08-07T07:26:58;5.20;;;4.30;;
27800;SDS011;15181;49.112;11.930;2022-08-07T07:29:27;4.82;;;4.32;;
27800;SDS011;15181;49.112;11.930;2022-08-07T07:31:57;5.75;;;4.35;;
27800;SDS011;15181;49.112;11.930;2022-08-07T07:34:27;5.30;;;4.80;;
27800;SDS011;15181;49.112;11.930;2022-08-07T07:36:56;4.72;;;4.32;;
27800;SDS011;15181;49.112;11.930;2022-08-07T07:39:26;5.30;;;4.30;;
27800;SDS011;15181;49.112;11.930;2022-08-07T07:41:54;5.22;;;4.57;;
27800;SDS011;15181;49.112;11.930;2022-08-07T07:44:24;4.93;;;4.40;;
27800;SDS011;15181;49.112;11.930;2022-08-07T07:46:54;4.95;;;4.50;;
27800;SDS011;15181;49.112;11.930;2022-08-07T07:49:22;4.97;;;4.47;;
27800;SDS011;15181;49.112;11.930;2022-08-07T07:51:52;4.60;;;4.20;;
27800;SDS011;15181;49.112;11.930;2022-08-07T07:54:22;4.60;;;4.20;;
27800;SDS011;15181;49.112;11.930;2022-08-07T07:56:50;4.80;;;4.40;;
27800;SDS011;15181;49.112;11.930;2022-08-07T07:59:18;5.55;;;4.30;;
27800;SDS011;15181;49.112;11.930;2022-08-07T08:01:47;4.70;;;4.30;;
27800;SDS011;15181;49.112;11.930;2022-08-07T08:04:16;5.03;;;4.55;;
27800;SDS011;15181;49.112;11.930;2022-08-07T08:06:45;5.03;;;4.60;;
27800;SDS011;15181;49.112;11.930;2022-08-07T08:09:13;4.60;;;4.13;;
27800;SDS011;15181;49.112;11.930;2022-08-07T08:11:44;4.80;;;4.30;;
27800;SDS011;15181;49.112;11.930;2022-08-07T08:14:11;4.50;;;4.10;;
27800;SDS011;15181;49.112;11.930;2022-08-07T08:16:39;4.90;;;4.30;;
27800;SDS011;15181;49.112;11.930;2022-08-07T08:19:11;5.38;;;4.40;;
27800;SDS011;15181;49.112;11.930;2022-08-07T08:21:43;4.70;;;4.30;;
27800;SDS011;15181;49.112;11.930;2022-08-07T08:24:31;5.07;;;4.57;;
27800;SDS011;15181;49.112;11.930;2022-08-07T08:27:18;4.70;;;4.30;;
27800;SDS011;15181;49.112;11.930;2022-08-07T08:29:48;4.50;;;4.10;;
27800;SDS011;15181;49.112;11.930;2022-08-07T08:32:17;4.90;;;4.30;;
27800;SDS011;15181;49.112;11.930;2022-08-07T08:34:48;4.70;;;4.30;;
27800;SDS011;15181;49.112;11.930;2022-08-07T08:37:16;4.50;;;4.10;;
27800;SDS011;15181;49.112;11.930;2022-08-07T08:39:45;4.45;;;4.15;;
27800;SDS011;15181;49.112;11.930;2022-08-07T08:42:16;4.68;;;4.28;;
27800;SDS011;15181;49.112;11.930;2022-08-07T08:44:52;5.35;;;4.63;;
27800;SDS011;15181;49.112;11.930;2022-08-07T08:47:32;4.68;;;4.28;;
27800;SDS011;15181;49.112;11.930;2022-08-07T08:50:08;4.60;;;4.20;;
27800;SDS011;15181;49.112;11.930;2022-08-07T08:52:45;4.80;;;4.40;;
27800;SDS011;15181;49.112;11.930;2022-08-07T08:55:18;4.55;;;4.10;;
27800;SDS011;15181;49.112;11.930;2022-08-07T08:57:51;4.70;;;4.30;;
27800;SDS011;15181;49.112;11.930;2022-08-07T09:00:29;4.88;;;4.18;;
27800;SDS011;15181;49.112;11.930;2022-08-07T09:03:00;5.20;;;4.28;;
27800;SDS011;15181;49.112;11.930;2022-08-07T09:05:39;4.60;;;4.20;;
27800;SDS011;15181;49.112;11.930;2022-08-07T09:08:16;4.60;;;4.20;;
27800;SDS011;15181;49.112;11.930;2022-08-07T09:10:50;4.90;;;4.50;;
27800;SDS011;15181;49.112;11.930;2022-08-07T09:13:28;4.78;;;4.38;;
27800;SDS011;15181;49.112;11.930;2022-08-07T09:16:01;4.85;;;4.45;;
27800;SDS011;15181;49.112;11.930;2022-08-07T09:18:35;5.20;;;4.40;;
27800;SDS011;15181;49.112;11.930;2022-08-07T09:21:24;4.80;;;4.40;;
27800;SDS011;15181;49.112;11.930;2022-08-07T09:24:00;4.95;;;4.55;;
27800;SDS011;15181;49.112;11.930;2022-08-07T09:26:38;7.35;;;4.50;;
27800;SDS011;15181;49.112;11.930;2022-08-07T09:29:12;4.50;;;4.10;;
27800;SDS011;15181;49.112;11.930;2022-08-07T09:31:50;4.60;;;4.20;;
27800;SDS011;15181;49.112;11.930;2022-08-07T09:34:26;4.70;;;4.30;;
27800;SDS011;15181;49.112;11.930;2022-08-07T09:37:05;4.50;;;4.10;;
27800;SDS011;15181;49.112;11.930;2022-08-07T09:39:42;4.55;;;4.15;;
27800;SDS011;15181;49.112;11.930;2022-08-07T09:42:18;4.78;;;4.38;;
27800;SDS011;15181;49.112;11.930;2022-08-07T09:45:06;4.60;;;4.20;;
27800;SDS011;15181;49.112;11.930;2022-08-07T09:47:38;5.32;;;4.80;;
27800;SDS011;15181;49.112;11.930;2022-08-07T09:50:13;4.60;;;4.20;;
27800;SDS011;15181;49.112;11.930;2022-08-07T09:52:51;4.72;;;4.32;;
27800;SDS011;15181;49.112;11.930;2022-08-07T09:55:29;4.32;;;3.97;;
27800;SDS011;15181;49.112;11.930;2022-08-07T09:58:28;4.53;;;4.10;;
27800;SDS011;15181;49.112;11.930;2022-08-07T10:01:24;4.20;;;3.80;;
27800;SDS011;15181;49.112;11.930;2022-08-07T10:06:57;4.10;;;3.80;;
27800;SDS011;15181;49.112;11.930;2022-08-07T10:09:40;4.97;;;4.00;;
27800;SDS011;15181;49.112;11.930;2022-08-07T10:12:21;4.10;;;3.80;;
27800;SDS011;15181;49.112;11.930;2022-08-07T10:15:16;5.43;;;3.72;;
27800;SDS011;15181;49.112;11.930;2022-08-07T10:21:29;3.90;;;3.60;;
27800;SDS011;15181;49.112;11.930;2022-08-07T10:24:13;4.45;;;4.05;;
27800;SDS011;15181;49.112;11.930;2022-08-07T10:26:56;5.85;;;4.55;;
27800;SDS011;15181;49.112;11.930;2022-08-07T10:29:46;4.25;;;3.90;;
27800;SDS011;15181;49.112;11.930;2022-08-07T10:32:42;4.13;;;3.83;;
27800;SDS011;15181;49.112;11.930;2022-08-07T10:35:34;7.35;;;3.90;;
27800;SDS011;15181;49.112;11.930;2022-08-07T10:38:13;4.30;;;4.00;;
27800;SDS011;15181;49.112;11.930;2022-08-07T10:41:00;4.22;;;3.92;;
27800;SDS011;15181;49.112;11.930;2022-08-07T10:43:38;4.18;;;3.88;;
27800;SDS011;15181;49.112;11.930;2022-08-07T10:48:39;4.40;;;4.10;;
27800;SDS011;15181;49.112;11.930;2022-08-07T10:51:13;4.63;;;4.22;;
27800;SDS011;15181;49.112;11.930;2022-08-07T10:53:46;4.70;;;4.30;;
27800;SDS011;15181;49.112;11.930;2022-08-07T10:56:22;4.20;;;3.90;;
27800;SDS011;15181;49.112;11.930;2022-08-07T10:59:05;4.70;;;4.30;;
27800;SDS011;15181;49.112;11.930;2022-08-07T11:01:39;4.72;;;4.32;;
27800;SDS011;15181;49.112;11.930;2022-08-07T11:04:16;6.78;;;6.03;;
27800;SDS011;15181;49.112;11.930;2022-08-07T11:06:55;4.80;;;4.40;;
27800;SDS011;15181;49.112;11.930;2022-08-07T11:11:57;4.80;;;4.40;;
27800;SDS011;15181;49.112;11.930;2022-08-07T11:14:32;4.80;;;4.40;;
27800;SDS011;15181;49.112;11.930;2022-08-07T11:17:03;5.25;;;4.15;;
27800;SDS011;15181;49.112;11.930;2022-08-07T11:19:37;4.60;;;4.20;;
27800;SDS011;15181;49.112;11.930;2022-08-07T11:24:41;5.25;;;4.75;;
27800;SDS011;15181;49.112;11.930;2022-08-07T11:27:12;6.65;;;4.70;;
27800;SDS011;15181;49.112;11.930;2022-08-07T11:29:48;5.00;;;4.50;;
27800;SDS011;15181;49.112;11.930;2022-08-07T11:32:20;4.85;;;4.45;;
27800;SDS011;15181;49.112;11.930;2022-08-07T11:35:00;4.82;;;4.43;;
27800;SDS011;15181;49.112;11.930;2022-08-07T11:37:46;4.70;;;4.30;;
27800;SDS011;15181;49.112;11.930;2022-08-07T11:40:30;5.28;;;4.75;;
27800;SDS011;15181;49.112;11.930;2022-08-07T11:43:05;4.88;;;4.47;;
27800;SDS011;15181;49.112;11.930;2022-08-07T11:45:44;22.33;;;5.13;;
27800;SDS011;15181;49.112;11.930;2022-08-07T11:48:29;4.70;;;4.30;;
27800;SDS011;15181;49.112;11.930;2022-08-07T11:51:16;5.03;;;4.50;;
27800;SDS011;15181;49.112;11.930;2022-08-07T11:53:56;5.10;;;4.70;;
27800;SDS011;15181;49.112;11.930;2022-08-07T11:56:34;5.72;;;4.20;;
27800;SDS011;15181;49.112;11.930;2022-08-07T11:59:14;4.75;;;4.35;;
27800;SDS011;15181;49.112;11.930;2022-08-07T12:01:59;4.90;;;4.50;;
27800;SDS011;15181;49.112;11.930;2022-08-07T12:04:41;4.70;;;4.30;;
27800;SDS011;15181;49.112;11.930;2022-08-07T12:07:22;4.80;;;4.40;;
27800;SDS011;15181;49.112;11.930;2022-08-07T12:09:52;4.82;;;4.43;;
27800;SDS011;15181;49.112;11.930;2022-08-07T12:12:29;5.00;;;4.50;;
27800;SDS011;15181;49.112;11.930;2022-08-07T12:15:02;4.80;;;4.40;;
27800;SDS011;15181;49.112;11.930;2022-08-07T12:17:36;4.93;;;4.50;;
27800;SDS011;15181;49.112;11.930;2022-08-07T12:20:07;4.90;;;4.50;;
27800;SDS011;15181;49.112;11.930;2022-08-07T12:22:39;4.82;;;4.30;;
27800;SDS011;15181;49.112;11.930;2022-08-07T12:25:12;4.68;;;4.28;;
27800;SDS011;15181;49.112;11.930;2022-08-07T12:28:03;5.07;;;4.57;;
27800;SDS011;15181;49.112;11.930;2022-08-07T12:30:37;4.38;;;4.07;;
27800;SDS011;15181;49.112;11.930;2022-08-07T12:33:10;4.80;;;4.40;;
27800;SDS011;15181;49.112;11.930;2022-08-07T12:35:42;4.80;;;4.40;;
27800;SDS011;15181;49.112;11.930;2022-08-07T12:38:10;5.10;;;4.70;;
27800;SDS011;15181;49.112;11.930;2022-08-07T12:40:39;4.88;;;4.47;;
27800;SDS011;15181;49.112;11.930;2022-08-07T12:43:09;4.78;;;4.38;;
27800;SDS011;15181;49.112;11.930;2022-08-07T12:45:40;5.30;;;4.80;;
27800;SDS011;15181;49.112;11.930;2022-08-07T12:48:19;5.00;;;4.60;;
27800;SDS011;15181;49.112;11.930;2022-08-07T12:50:58;5.35;;;4.40;;
27800;SDS011;15181;49.112;11.930;2022-08-07T12:53:31;4.75;;;4.35;;
27800;SDS011;15181;49.112;11.930;2022-08-07T12:56:06;4.78;;;4.38;;
27800;SDS011;15181;49.112;11.930;2022-08-07T13:01:07;6.38;;;4.75;;
27800;SDS011;15181;49.112;11.930;2022-08-07T13:03:51;5.88;;;4.85;;
27800;SDS011;15181;49.112;11.930;2022-08-07T13:06:28;4.53;;;4.20;;
27800;SDS011;15181;49.112;11.930;2022-08-07T13:09:13;4.90;;;4.50;;
27800;SDS011;15181;49.112;11.930;2022-08-07T13:11:46;5.35;;;4.45;;
27800;SDS011;15181;49.112;11.930;2022-08-07T13:14:23;4.60;;;4.20;;
27800;SDS011;15181;49.112;11.930;2022-08-07T13:17:01;4.50;;;4.10;;
27800;SDS011;15181;49.112;11.930;2022-08-07T13:19:33;5.63;;;4.43;;
27800;SDS011;15181;49.112;11.930;2022-08-07T13:22:09;4.85;;;4.45;;
27800;SDS011;15181;49.112;11.930;2022-08-07T13:24:41;5.00;;;4.60;;
27800;SDS011;15181;49.112;11.930;2022-08-07T13:27:15;4.97;;;4.57;;
27800;SDS011;15181;49.112;11.930;2022-08-07T13:29:48;5.03;;;4.53;;
27800;SDS011;15181;49.112;11.930;2022-08-07T13:32:22;5.10;;;4.70;;
27800;SDS011;15181;49.112;11.930;2022-08-07T13:34:59;4.88;;;4.40;;
27800;SDS011;15181;49.112;11.930;2022-08-07T13:37:30;4.80;;;4.40;;
27800;SDS011;15181;49.112;11.930;2022-08-07T13:40:05;4.95;;;4.47;;
27800;SDS011;15181;49.112;11.930;2022-08-07T13:42:40;4.80;;;4.40;;
27800;SDS011;15181;49.112;11.930;2022-08-07T13:45:08;4.70;;;4.30;;
27800;SDS011;15181;49.112;11.930;2022-08-07T13:47:36;5.18;;;4.47;;
27800;SDS011;15181;49.112;11.930;2022-08-07T13:50:06;4.75;;;4.35;;
27800;SDS011;15181;49.112;11.930;2022-08-07T13:52:36;6.28;;;4.60;;
27800;SDS011;15181;49.112;11.930;2022-08-07T13:55:05;5.28;;;4.63;;
27800;SDS011;15181;49.112;11.930;2022-08-07T13:57:35;5.22;;;4.70;;
27800;SDS011;15181;49.112;11.930;2022-08-07T14:00:06;5.80;;;4.57;;
27800;SDS011;15181;49.112;11.930;2022-08-07T14:02:34;5.22;;;4.72;;
27800;SDS011;15181;49.112;11.930;2022-08-07T14:05:03;4.90;;;4.50;;
27800;SDS011;15181;49.112;11.930;2022-08-07T14:07:37;5.85;;;4.60;;
27800;SDS011;15181;49.112;11.930;2022-08-07T14:10:07;5.28;;;4.40;;
27800;SDS011;15181;49.112;11.930;2022-08-07T14:12:37;4.85;;;4.45;;
27800;SDS011;15181;49.112;11.930;2022-08-07T14:15:16;4.90;;;4.50;;
27800;SDS011;15181;49.112;11.930;2022-08-07T14:17:46;5.10;;;4.60;;
27800;SDS011;15181;49.112;11.930;2022-08-07T14:20:15;4.80;;;4.40;;
27800;SDS011;15181;49.112;11.930;2022-08-07T14:22:45;4.88;;;4.45;;
27800;SDS011;15181;49.112;11.930;2022-08-07T14:25:21;5.10;;;4.60;;
27800;SDS011;15181;49.112;11.930;2022-08-07T14:27:51;4.68;;;4.28;;
27800;SDS011;15181;49.112;11.930;2022-08-07T14:30:20;7.18;;;4.65;;
27800;SDS011;15181;49.112;11.930;2022-08-07T14:32:49;5.20;;;4.70;;
27800;SDS011;15181;49.112;11.930;2022-08-07T14:35:20;5.20;;;4.80;;
27800;SDS011;15181;49.112;11.930;2022-08-07T14:37:51;4.90;;;4.50;;
27800;SDS011;15181;49.112;11.930;2022-08-07T14:40:19;5.00;;;4.60;;
27800;SDS011;15181;49.112;11.930;2022-08-07T14:42:51;5.53;;;4.93;;
27800;SDS011;15181;49.112;11.930;2022-08-07T14:45:20;5.45;;;4.80;;
27800;SDS011;15181;49.112;11.930;2022-08-07T14:47:50;5.45;;;4.82;;
27800;SDS011;15181;49.112;11.930;2022-08-07T14:50:17;5.10;;;4.70;;
27800;SDS011;15181;49.112;11.930;2022-08-07T14:52:47;5.57;;;4.88;;
27800;SDS011;15181;49.112;11.930;2022-08-07T14:55:16;5.40;;;4.90;;
27800;SDS011;15181;49.112;11.930;2022-08-07T14:57:46;5.30;;;4.90;;
27800;SDS011;15181;49.112;11.930;2022-08-07T15:00:16;5.18;;;4.78;;
27800;SDS011;15181;49.112;11.930;2022-08-07T15:02:45;5.07;;;4.68;;
27800;SDS011;15181;49.112;11.930;2022-08-07T15:05:15;5.10;;;4.68;;
27800;SDS011;15181;49.112;11.930;2022-08-07T15:07:44;5.30;;;4.90;;
27800;SDS011;15181;49.112;11.930;2022-08-07T15:10:17;5.43;;;4.97;;
27800;SDS011;15181;49.112;11.930;2022-08-07T15:12:45;5.60;;;4.90;;
27800;SDS011;15181;49.112;11.930;2022-08-07T15:15:15;5.47;;;4.97;;